Time;durP1;ratioP1;P1;durP2;ratioP2;P2;SDS_P1;SDS_P2;PMS_P1;PMS_P2;Temp;Humidity;BMP_temperature;BMP_pressure;BME280_temperature;BME280_humidity;BME280_pressure;Samples;Min_cycle;Max_cycle;Signal;HPM_P1;HPM_P2
2022/10/18 00:02:14;;;;;;;169.88;37.03;;;12.70;99.90;;;;;;5114498;28;20439;-77
2022/10/18 00:04:40;;;;;;;281.85;48.95;;;12.70;99.90;;;;;;5114378;28;20059;-77
2022/10/18 00:07:06;;;;;;;198.13;40.22;;;12.70;99.90;;;;;;5114198;28;20138;-77
2022/10/18 00:09:32;;;;;;;170.73;38.13;;;12.80;99.90;;;;;;5114467;28;20055;-77
2022/10/18 00:11:58;;;;;;;266.15;47.78;;;12.80;99.90;;;;;;5113027;28;20047;-77
2022/10/18 00:14:24;;;;;;;167.57;35.60;;;12.80;99.90;;;;;;5114448;28;20053;-77
2022/10/18 00:16:50;;;;;;;293.90;53.58;;;12.80;99.90;;;;;;5114009;28;20044;-77
2022/10/18 00:19:16;;;;;;;325.75;53.08;;;12.80;99.90;;;;;;5114110;28;20047;-77
2022/10/18 00:21:42;;;;;;;154.40;34.85;;;12.80;99.90;;;;;;5112451;28;20101;-76
2022/10/18 00:24:08;;;;;;;191.18;40.35;;;12.80;99.90;;;;;;5113927;28;20071;-78
2022/10/18 00:26:34;;;;;;;298.95;52.13;;;12.80;99.90;;;;;;5114486;28;20048;-77
2022/10/18 00:29:04;;;;;;;243.65;45.97;;;12.80;99.90;;;;;;5114089;28;20052;-77
2022/10/18 00:31:33;;;;;;;238.77;43.40;;;12.80;99.90;;;;;;5114089;28;20052;-77
2022/10/18 00:34:01;;;;;;;191.27;36.10;;;12.80;99.90;;;;;;5112886;28;20052;-78
2022/10/18 00:36:29;;;;;;;204.43;40.55;;;12.80;99.90;;;;;;5113502;28;20484;-76
2022/10/18 00:38:56;;;;;;;300.83;47.03;;;12.80;99.90;;;;;;5113371;28;20177;-76
2022/10/18 00:41:24;;;;;;;199.98;39.13;;;12.80;99.90;;;;;;5112686;28;20040;-77
2022/10/18 00:43:56;;;;;;;302.83;49.75;;;12.80;99.90;;;;;;5112692;28;20067;-78
2022/10/18 00:46:23;;;;;;;268.48;47.50;;;12.80;99.90;;;;;;5113595;28;20047;-77
2022/10/18 00:48:50;;;;;;;166.13;31.92;;;12.80;99.90;;;;;;5113371;28;20630;-77
2022/10/18 00:51:19;;;;;;;226.20;37.00;;;12.80;99.90;;;;;;5112518;28;20047;-77
2022/10/18 00:53:45;;;;;;;152.48;32.58;;;12.80;99.90;;;;;;5112298;28;20056;-77
2022/10/18 00:56:12;;;;;;;192.68;35.95;;;12.80;99.90;;;;;;5113829;28;20135;-78
2022/10/18 00:58:40;;;;;;;159.25;32.38;;;12.80;99.90;;;;;;5114577;28;20112;-79
2022/10/18 01:01:06;;;;;;;165.00;32.53;;;12.80;99.90;;;;;;5112409;28;20039;-77
2022/10/18 01:03:32;;;;;;;218.05;40.50;;;12.80;99.90;;;;;;5113301;28;20055;-76
2022/10/18 01:05:58;;;;;;;193.70;35.53;;;12.80;99.90;;;;;;5128944;27;20164;-78
2022/10/18 01:08:50;;;;;;;201.88;36.42;;;12.80;99.90;;;;;;5113824;28;20077;-78
2022/10/18 01:11:54;;;;;;;246.75;38.28;;;12.80;99.90;;;;;;5109490;28;20043;-78
2022/10/18 01:14:53;;;;;;;142.82;31.10;;;12.70;99.90;;;;;;5111959;28;20567;-79
2022/10/18 01:17:31;;;;;;;219.43;37.20;;;12.70;99.90;;;;;;5096901;28;20574;-76
2022/10/18 01:20:21;;;;;;;206.95;39.47;;;12.70;99.90;;;;;;5113210;28;20040;-77
2022/10/18 01:22:49;;;;;;;168.40;33.95;;;12.70;99.90;;;;;;5113235;28;20101;-77
2022/10/18 01:25:36;;;;;;;164.23;27.95;;;12.60;99.90;;;;;;5112339;28;20069;-76
2022/10/18 01:28:42;;;;;;;139.95;26.65;;;12.60;99.90;;;;;;5111939;28;20047;-79
2022/10/18 01:31:29;;;;;;;176.68;27.00;;;12.60;99.90;;;;;;5111647;28;20079;-77
2022/10/18 01:34:04;;;;;;;174.13;26.85;;;12.60;99.90;;;;;;5112842;28;20047;-79
2022/10/18 01:36:30;;;;;;;156.85;25.85;;;12.50;99.90;;;;;;5111385;28;20192;-77
2022/10/18 01:39:00;;;;;;;245.13;37.42;;;12.50;99.90;;;;;;5112200;28;20407;-78
2022/10/18 01:41:28;;;;;;;204.95;33.40;;;12.50;99.90;;;;;;5118450;27;20051;-78
2022/10/18 01:44:00;;;;;;;174.00;30.63;;;12.50;99.90;;;;;;5133820;27;20055;-79
2022/10/18 01:46:28;;;;;;;213.13;33.35;;;12.50;99.90;;;;;;5114683;27;20566;-77
2022/10/18 01:48:55;;;;;;;114.22;20.75;;;12.40;99.90;;;;;;5132982;27;20083;-79
2022/10/18 01:51:26;;;;;;;95.43;22.52;;;12.40;99.90;;;;;;5114691;27;20089;-78
2022/10/18 01:53:52;;;;;;;253.88;33.95;;;12.40;99.90;;;;;;5114586;27;20456;-78
2022/10/18 01:56:47;;;;;;;130.02;21.50;;;12.40;99.90;;;;;;5132824;27;20107;-76
2022/10/18 01:59:28;;;;;;;166.15;27.35;;;12.40;99.90;;;;;;5097704;27;20062;-79
2022/10/18 02:02:06;;;;;;;217.55;36.92;;;12.30;99.90;;;;;;5132752;27;20130;-78
2022/10/18 02:04:52;;;;;;;116.25;23.33;;;12.30;99.90;;;;;;5133855;27;20047;-77
2022/10/18 02:07:32;;;;;;;232.63;34.33;;;12.30;99.90;;;;;;5133445;27;20047;-76
2022/10/18 02:10:28;;;;;;;191.63;32.20;;;12.20;99.90;;;;;;5115277;27;20079;-78
2022/10/18 02:12:55;;;;;;;;;;;12.20;99.90;;;;;;5132774;27;20051;-77
2022/10/18 02:15:25;;;;;;;73.20;23.08;;;12.10;99.90;;;;;;5132625;27;20374;-78
2022/10/18 02:17:53;;;;;;;34.40;16.88;;;12.10;99.90;;;;;;5131796;27;20054;-78
2022/10/18 02:20:21;;;;;;;42.25;17.80;;;12.10;99.90;;;;;;5133404;27;20062;-78
2022/10/18 02:22:49;;;;;;;40.88;17.88;;;12.00;99.90;;;;;;5097059;27;20130;-78
2022/10/18 02:25:22;;;;;;;52.63;21.33;;;12.00;99.90;;;;;;5132118;27;20115;-78
2022/10/18 02:27:48;;;;;;;47.25;19.90;;;12.00;99.90;;;;;;5114187;27;20391;-76
2022/10/18 02:30:14;;;;;;;47.17;19.75;;;12.00;99.90;;;;;;5097333;27;20078;-79
2022/10/18 02:32:47;;;;;;;62.97;22.67;;;11.90;99.90;;;;;;5132116;27;20465;-77
2022/10/18 02:35:39;;;;;;;38.72;18.00;;;11.90;99.90;;;;;;5097486;27;20126;-77
2022/10/18 02:38:08;;;;;;;51.67;20.95;;;11.80;99.90;;;;;;5130900;27;20058;-78
2022/10/18 02:40:34;;;;;;;58.83;22.52;;;11.80;99.90;;;;;;5132304;27;20055;-77
2022/10/18 02:43:00;;;;;;;50.15;21.15;;;11.70;99.90;;;;;;5113447;27;20451;-78
2022/10/18 02:45:26;;;;;;;46.75;19.88;;;11.70;99.90;;;;;;5114204;27;20047;-79
2022/10/18 02:47:52;;;;;;;32.50;16.25;;;11.60;99.90;;;;;;5113718;27;20495;-78
2022/10/18 02:50:18;;;;;;;43.42;18.38;;;11.60;99.90;;;;;;5132121;27;20050;-78
2022/10/18 02:52:44;;;;;;;39.20;16.63;;;11.50;99.90;;;;;;5113825;28;20138;-79
2022/10/18 02:55:10;;;;;;;39.25;17.73;;;11.50;99.90;;;;;;5113508;27;20567;-78
2022/10/18 02:57:36;;;;;;;53.55;20.25;;;11.40;99.90;;;;;;5113907;28;20069;-78
2022/10/18 03:00:04;;;;;;;51.25;19.75;;;11.40;99.90;;;;;;5132216;28;20406;-79
2022/10/18 03:02:30;;;;;;;52.75;21.00;;;11.40;99.90;;;;;;5132628;28;20186;-77
2022/10/18 03:04:56;;;;;;;43.13;17.98;;;11.40;99.90;;;;;;5117035;28;20054;-78
2022/10/18 03:07:22;;;;;;;40.53;18.00;;;11.40;99.90;;;;;;5097008;28;20043;-77
2022/10/18 03:09:48;;;;;;;44.72;18.42;;;11.40;99.90;;;;;;5113293;28;20051;-77
2022/10/18 03:12:14;;;;;;;44.10;18.50;;;11.40;99.90;;;;;;5131608;28;20053;-79
2022/10/18 03:14:40;;;;;;;43.45;19.10;;;11.40;99.90;;;;;;5113497;28;20058;-79
2022/10/18 03:17:06;;;;;;;45.58;19.48;;;11.30;99.90;;;;;;5113882;28;20575;-78
2022/10/18 03:19:32;;;;;;;29.95;15.02;;;11.30;99.90;;;;;;5131357;28;20055;-78
2022/10/18 03:21:57;;;;;;;26.95;12.30;;;11.30;99.90;;;;;;5131808;28;20046;-77
2022/10/18 03:24:23;;;;;;;43.17;17.48;;;11.30;99.90;;;;;;5113221;28;20078;-77
2022/10/18 03:26:49;;;;;;;41.50;17.90;;;11.30;99.90;;;;;;5113071;28;20091;-78
2022/10/18 03:29:15;;;;;;;35.35;15.18;;;11.20;99.90;;;;;;5133615;27;20468;-78
2022/10/18 03:31:41;;;;;;;30.38;14.70;;;11.10;99.90;;;;;;5136262;27;20083;-77
2022/10/18 03:34:07;;;;;;;43.22;17.38;;;11.10;99.90;;;;;;5135943;27;20135;-79
2022/10/18 03:36:33;;;;;;;37.80;17.20;;;11.10;99.90;;;;;;5117513;27;20129;-78
2022/10/18 03:39:00;;;;;;;46.50;18.40;;;11.00;99.90;;;;;;5099775;27;20409;-78
2022/10/18 03:41:26;;;;;;;49.53;19.55;;;11.10;99.90;;;;;;5116432;27;20047;-77
2022/10/18 03:43:52;;;;;;;47.72;19.38;;;11.00;99.90;;;;;;5117152;27;20070;-76
2022/10/18 03:46:17;;;;;;;48.17;18.45;;;11.00;99.90;;;;;;5136265;27;20502;-79
2022/10/18 03:48:43;;;;;;;33.30;15.98;;;10.90;99.90;;;;;;5116820;27;20055;-77
2022/10/18 03:51:09;;;;;;;39.63;18.10;;;10.90;99.90;;;;;;5116806;27;20503;-77
2022/10/18 03:53:35;;;;;;;39.88;16.92;;;10.90;99.90;;;;;;5116783;27;20047;-78
2022/10/18 03:56:01;;;;;;;43.17;17.27;;;10.90;99.90;;;;;;5135220;27;20473;-78
2022/10/18 03:58:27;;;;;;;33.28;15.65;;;10.90;99.90;;;;;;5116901;27;20055;-78
2022/10/18 04:00:54;;;;;;;61.58;22.13;;;10.90;99.90;;;;;;5135804;27;20138;-77
2022/10/18 04:03:21;;;;;;;37.08;17.00;;;10.90;99.90;;;;;;5116855;27;20047;-76
2022/10/18 04:05:48;;;;;;;43.58;18.27;;;10.90;99.90;;;;;;5116668;27;20085;-77
2022/10/18 04:08:15;;;;;;;53.45;19.50;;;10.90;99.90;;;;;;5116518;27;20058;-78
2022/10/18 04:10:41;;;;;;;40.70;15.68;;;10.90;99.90;;;;;;5135397;27;20074;-78
2022/10/18 04:13:07;;;;;;;54.22;19.42;;;10.80;99.90;;;;;;5099736;27;20252;-78
2022/10/18 04:15:33;;;;;;;63.65;20.48;;;10.80;99.90;;;;;;5134957;27;20047;-77
2022/10/18 04:18:00;;;;;;;49.40;18.63;;;10.70;99.90;;;;;;5117185;27;20066;-77
2022/10/18 04:20:27;;;;;;;37.10;16.88;;;10.70;99.90;;;;;;5116610;27;20043;-77
2022/10/18 04:22:56;;;;;;;37.38;16.38;;;10.70;99.90;;;;;;5134689;27;20054;-76
2022/10/18 04:25:23;;;;;;;33.42;15.40;;;10.60;99.90;;;;;;5116017;27;20440;-77
2022/10/18 04:27:49;;;;;;;26.88;13.40;;;10.60;99.90;;;;;;5116004;27;20059;-76
2022/10/18 04:30:15;;;;;;;45.63;17.17;;;10.60;99.90;;;;;;5115985;27;20058;-76
2022/10/18 04:32:41;;;;;;;33.72;14.63;;;10.50;99.90;;;;;;5134685;27;20043;-77
2022/10/18 04:35:08;;;;;;;31.13;13.63;;;10.50;99.90;;;;;;5116918;27;20074;-77
2022/10/18 04:37:34;;;;;;;36.97;13.90;;;10.50;99.90;;;;;;5134173;27;20051;-77
2022/10/18 04:40:00;;;;;;;47.10;16.88;;;10.40;99.90;;;;;;5114947;28;20065;-77
2022/10/18 04:42:26;;;;;;;19.40;10.15;;;10.30;99.90;;;;;;5095008;28;20062;-76
2022/10/18 04:44:52;;;;;;;34.53;15.23;;;10.30;99.90;;;;;;5095212;28;20043;-76
2022/10/18 04:47:21;;;;;;;42.00;17.25;;;10.30;99.90;;;;;;5112330;28;20044;-76
2022/10/18 04:49:47;;;;;;;29.58;14.15;;;10.30;99.90;;;;;;5114453;28;20172;-77
2022/10/18 04:52:13;;;;;;;27.13;10.95;;;10.20;99.90;;;;;;5095727;28;20051;-79
2022/10/18 04:54:39;;;;;;;46.45;17.60;;;10.20;99.90;;;;;;5112483;28;20562;-78
2022/10/18 04:57:05;;;;;;;40.25;16.08;;;10.10;99.90;;;;;;5112507;28;20059;-77
2022/10/18 04:59:30;;;;;;;23.13;12.30;;;10.10;99.90;;;;;;5113602;28;20444;-76
2022/10/18 05:01:56;;;;;;;25.45;11.13;;;10.00;99.90;;;;;;5111840;28;20151;-79
2022/10/18 05:04:22;;;;;;;20.17;10.00;;;10.10;99.90;;;;;;5113057;28;20096;-77
2022/10/18 05:06:48;;;;;;;44.05;15.98;;;10.00;99.90;;;;;;5096206;28;20101;-76
2022/10/18 05:09:14;;;;;;;45.78;14.77;;;10.00;99.90;;;;;;5111791;28;20759;-77
2022/10/18 05:11:40;;;;;;;31.92;12.68;;;9.90;99.90;;;;;;5112144;28;20130;-76
2022/10/18 05:14:08;;;;;;;40.58;15.32;;;10.00;99.90;;;;;;5112996;28;20154;-77
2022/10/18 05:16:35;;;;;;;36.13;16.15;;;9.90;99.90;;;;;;5112688;28;20100;-77
2022/10/18 05:19:02;;;;;;;38.58;17.10;;;10.00;99.90;;;;;;5111702;28;20513;-77
2022/10/18 05:21:28;;;;;;;35.53;15.40;;;10.00;99.90;;;;;;5113702;28;20139;-76
2022/10/18 05:23:56;;;;;;;39.50;15.32;;;10.00;99.90;;;;;;5112993;28;20122;-77
2022/10/18 05:26:22;;;;;;;74.82;22.05;;;10.00;99.90;;;;;;5113152;28;20044;-77
2022/10/18 05:28:49;;;;;;;34.88;13.23;;;9.90;99.90;;;;;;5111408;28;20083;-77
2022/10/18 05:31:15;;;;;;;44.78;16.35;;;10.00;99.90;;;;;;5111572;28;20208;-77
2022/10/18 05:33:41;;;;;;;40.17;13.98;;;9.90;99.90;;;;;;5094635;28;20414;-76
2022/10/18 05:36:08;;;;;;;45.78;16.83;;;10.00;99.90;;;;;;5111110;28;20048;-77
2022/10/18 05:38:38;;;;;;;29.90;12.68;;;10.00;99.90;;;;;;5112473;28;20139;-78
2022/10/18 05:41:04;;;;;;;36.97;15.05;;;9.90;99.90;;;;;;5113451;28;20070;-78
2022/10/18 05:43:30;;;;;;;33.45;14.65;;;9.90;99.90;;;;;;5110900;28;20063;-77
2022/10/18 05:45:56;;;;;;;37.00;15.23;;;9.90;99.90;;;;;;5111172;28;20043;-79
2022/10/18 05:48:22;;;;;;;33.75;14.32;;;9.90;99.90;;;;;;5111123;28;20476;-78
2022/10/18 05:50:48;;;;;;;42.50;17.83;;;9.90;99.90;;;;;;5112291;28;20047;-75
2022/10/18 05:53:14;;;;;;;59.38;19.35;;;9.90;99.90;;;;;;5112610;28;20099;-76
2022/10/18 05:55:39;;;;;;;47.33;17.02;;;9.90;99.90;;;;;;5112696;28;20051;-78
2022/10/18 05:58:05;;;;;;;38.65;15.35;;;9.90;99.90;;;;;;5111041;28;20051;-78
2022/10/18 06:00:31;;;;;;;40.65;15.93;;;9.90;99.90;;;;;;5112533;28;20070;-76
2022/10/18 06:02:58;;;;;;;41.58;15.40;;;9.90;99.90;;;;;;5110669;28;20495;-76
2022/10/18 06:05:24;;;;;;;31.58;14.88;;;9.90;99.90;;;;;;5112389;28;20079;-77
2022/10/18 06:07:49;;;;;;;42.13;15.35;;;9.80;99.90;;;;;;5112349;28;20052;-76
2022/10/18 06:10:15;;;;;;;28.67;13.60;;;9.90;99.90;;;;;;5128156;27;20483;-76
2022/10/18 06:12:41;;;;;;;45.67;16.60;;;9.80;99.90;;;;;;5112581;28;20063;-76
2022/10/18 06:15:08;;;;;;;50.22;17.80;;;9.80;99.90;;;;;;5112426;28;20040;-77
2022/10/18 06:17:33;;;;;;;51.10;17.77;;;9.80;99.90;;;;;;5112137;28;20105;-76
2022/10/18 06:19:59;;;;;;;44.20;17.17;;;9.70;99.90;;;;;;5093542;28;20455;-76
2022/10/18 06:22:25;;;;;;;28.30;13.23;;;9.70;99.90;;;;;;5110536;28;20087;-76
2022/10/18 06:24:51;;;;;;;37.58;14.18;;;9.70;99.90;;;;;;5110314;28;20051;-76
2022/10/18 06:27:17;;;;;;;25.60;11.35;;;9.70;99.90;;;;;;5110927;28;20057;-78
2022/10/18 06:29:43;;;;;;;32.95;14.00;;;9.60;99.90;;;;;;5110711;28;20388;-78
2022/10/18 06:32:09;;;;;;;34.13;13.38;;;9.60;99.90;;;;;;5110306;28;20540;-77
2022/10/18 06:34:34;;;;;;;27.42;12.27;;;9.60;99.90;;;;;;5110026;28;20048;-77
2022/10/18 06:37:01;;;;;;;27.40;10.80;;;9.60;99.90;;;;;;5111642;28;20092;-77
2022/10/18 06:39:27;;;;;;;27.13;13.13;;;9.60;99.90;;;;;;5111604;28;20047;-77
2022/10/18 06:41:53;;;;;;;30.83;12.50;;;9.50;99.90;;;;;;5111059;28;20556;-78
2022/10/18 06:44:20;;;;;;;23.35;9.70;;;9.50;99.90;;;;;;5110314;28;20087;-78
2022/10/18 06:46:47;;;;;;;19.77;10.32;;;9.40;99.90;;;;;;5111536;28;20407;-78
2022/10/18 06:49:14;;;;;;;21.75;8.88;;;9.40;99.90;;;;;;5111555;28;20090;-78
2022/10/18 06:51:41;;;;;;;20.85;9.75;;;9.40;99.90;;;;;;5111622;28;20052;-78
2022/10/18 06:54:07;;;;;;;25.90;11.23;;;9.50;99.90;;;;;;5109919;28;20058;-77
2022/10/18 06:56:33;;;;;;;29.67;10.52;;;9.50;99.90;;;;;;5110990;28;20044;-77
2022/10/18 06:58:59;;;;;;;24.42;9.82;;;9.60;99.90;;;;;;5111270;28;20051;-77
2022/10/18 07:01:27;;;;;;;33.08;11.13;;;9.60;99.90;;;;;;5112557;28;20457;-76
2022/10/18 07:03:54;;;;;;;25.63;10.82;;;9.70;99.90;;;;;;5109110;28;20516;-77
2022/10/18 07:06:20;;;;;;;27.33;11.10;;;9.80;99.90;;;;;;5092944;28;20055;-76
2022/10/18 07:08:47;;;;;;;22.80;10.90;;;9.80;99.90;;;;;;5111428;28;20551;-76
2022/10/18 07:11:25;;;;;;;20.48;9.95;;;9.90;99.90;;;;;;5110957;28;20039;-78
2022/10/18 07:13:53;;;;;;;27.67;9.32;;;10.00;99.90;;;;;;5109931;28;20051;-78
2022/10/18 07:16:19;;;;;;;25.45;10.43;;;10.00;99.90;;;;;;5109947;28;20056;-78
2022/10/18 07:18:50;;;;;;;26.42;10.02;;;10.10;99.90;;;;;;5111706;28;20394;-79
2022/10/18 07:21:19;;;;;;;27.85;10.40;;;10.20;99.90;;;;;;5109688;28;20044;-79
2022/10/18 07:23:45;;;;;;;30.33;9.50;;;10.20;99.90;;;;;;5111139;28;20079;-80
2022/10/18 07:26:22;;;;;;;25.10;9.65;;;10.30;99.90;;;;;;5110897;28;20051;-81
2022/10/18 07:28:53;;;;;;;26.33;9.02;;;10.30;99.90;;;;;;5109434;28;20048;-79
2022/10/18 07:31:19;;;;;;;27.77;11.00;;;10.40;99.90;;;;;;5110140;28;20082;-76
2022/10/18 07:33:45;;;;;;;31.45;9.10;;;10.40;99.90;;;;;;5111385;28;20039;-75
2022/10/18 07:36:12;;;;;;;20.75;8.60;;;10.50;99.90;;;;;;5111238;28;20050;-75
2022/10/18 07:38:39;;;;;;;31.15;10.02;;;10.50;99.90;;;;;;5109834;28;20456;-77
2022/10/18 07:41:06;;;;;;;23.10;9.18;;;10.60;99.90;;;;;;5109706;28;20056;-79
2022/10/18 07:43:33;;;;;;;22.65;8.07;;;10.60;99.90;;;;;;5109369;28;20054;-77
2022/10/18 07:46:01;;;;;;;27.10;8.88;;;10.70;99.90;;;;;;5110077;28;20043;-78
2022/10/18 07:48:27;;;;;;;23.88;8.65;;;10.80;99.90;;;;;;5110024;28;20105;-78
2022/10/18 07:50:56;;;;;;;29.27;8.25;;;10.80;99.90;;;;;;5111024;28;20044;-76
2022/10/18 07:53:22;;;;;;;21.80;8.00;;;10.90;99.90;;;;;;5112141;28;20047;-79
2022/10/18 07:55:48;;;;;;;19.33;7.82;;;10.90;99.90;;;;;;5110896;28;20036;-78
2022/10/18 07:58:14;;;;;;;20.73;7.22;;;11.00;99.90;;;;;;5109420;28;20058;-80
2022/10/18 08:00:40;;;;;;;21.50;6.45;;;11.10;99.90;;;;;;5110787;28;20056;-77
2022/10/18 08:03:06;;;;;;;17.45;6.03;;;11.10;99.90;;;;;;5110574;28;20144;-78
2022/10/18 08:05:32;;;;;;;27.00;6.20;;;11.20;99.90;;;;;;5110497;28;20101;-78
2022/10/18 08:07:58;;;;;;;18.85;6.57;;;11.30;99.90;;;;;;5110795;28;20126;-78
2022/10/18 08:10:24;;;;;;;21.58;6.13;;;11.30;99.90;;;;;;5111017;28;20492;-79
2022/10/18 08:12:50;;;;;;;22.85;6.80;;;11.40;99.90;;;;;;5109297;28;20098;-78
2022/10/18 08:15:16;;;;;;;22.48;6.38;;;11.40;99.90;;;;;;5110785;28;20054;-77
2022/10/18 08:17:45;;;;;;;17.70;5.15;;;11.50;99.90;;;;;;5113152;28;20388;-77
2022/10/18 08:20:11;;;;;;;16.88;5.72;;;11.50;99.90;;;;;;5112686;28;20514;-77
2022/10/18 08:22:37;;;;;;;24.05;5.53;;;11.60;99.90;;;;;;5112829;28;20056;-77
2022/10/18 08:25:03;;;;;;;19.00;5.32;;;11.70;99.90;;;;;;5115735;28;20043;-77
2022/10/18 08:27:29;;;;;;;12.63;5.18;;;11.80;99.90;;;;;;5114067;28;20482;-77
2022/10/18 08:29:55;;;;;;;20.85;5.55;;;11.80;99.90;;;;;;5114082;28;20056;-77
2022/10/18 08:32:21;;;;;;;21.05;4.68;;;11.90;99.90;;;;;;5129828;27;20048;-77
2022/10/18 08:34:47;;;;;;;21.85;5.10;;;12.00;99.90;;;;;;5114038;28;20438;-78
2022/10/18 08:37:12;;;;;;;18.73;4.60;;;12.10;99.90;;;;;;5130182;27;20052;-77
2022/10/18 08:39:38;;;;;;;15.32;4.55;;;12.20;99.90;;;;;;5115114;28;20043;-77
2022/10/18 08:42:13;;;;;;;25.42;4.53;;;12.30;99.90;;;;;;5121527;27;20055;-78
2022/10/18 08:44:50;;;;;;;28.33;4.82;;;12.40;99.90;;;;;;5115823;27;20070;-77
2022/10/18 08:47:42;;;;;;;18.45;4.57;;;12.50;99.90;;;;;;5136234;27;20058;-78
2022/10/18 08:50:21;;;;;;;18.23;5.25;;;12.60;99.90;;;;;;5115924;27;20387;-77
2022/10/18 08:53:14;;;;;;;27.48;4.82;;;12.70;99.90;;;;;;5116068;27;20047;-77
2022/10/18 08:55:58;;;;;;;21.00;5.25;;;12.80;99.90;;;;;;5115663;27;20142;-78
2022/10/18 08:58:29;;;;;;;17.80;3.55;;;12.90;99.90;;;;;;5115715;27;20101;-79
2022/10/18 09:01:10;;;;;;;19.75;3.45;;;13.00;99.90;;;;;;5115555;27;20051;-79
2022/10/18 09:03:54;;;;;;;24.08;3.17;;;13.10;99.90;;;;;;5098546;27;20051;-78
2022/10/18 09:06:23;;;;;;;21.02;4.00;;;13.20;99.90;;;;;;5133433;27;20111;-78
2022/10/18 09:09:26;;;;;;;17.10;3.90;;;13.30;99.90;;;;;;5118750;27;20047;-78
2022/10/18 09:12:29;;;;;;;17.88;2.78;;;13.40;99.90;;;;;;5134473;27;20051;-77
2022/10/18 09:15:20;;;;;;;21.25;4.57;;;13.50;99.90;;;;;;5098860;27;20047;-78
2022/10/18 09:18:18;;;;;;;12.43;2.47;;;13.60;99.90;;;;;;5098000;27;20495;-76
2022/10/18 09:20:55;;;;;;;15.15;2.63;;;13.60;99.90;;;;;;5114990;27;20047;-77
2022/10/18 09:23:29;;;;;;;23.02;3.92;;;13.70;99.90;;;;;;5134388;27;20577;-76
2022/10/18 09:25:58;;;;;;;15.32;3.10;;;13.70;99.90;;;;;;5134815;27;20058;-79
2022/10/18 09:28:46;;;;;;;14.15;3.40;;;13.80;99.90;;;;;;5098638;27;20082;-78
2022/10/18 09:31:21;;;;;;;17.17;3.22;;;13.80;99.90;;;;;;5099472;27;20422;-78
2022/10/18 09:33:55;;;;;;;;;;;13.90;99.90;;;;;;5133817;27;20143;-78
2022/10/18 09:36:35;;;;;;;13.20;2.30;;;14.00;99.90;;;;;;5133026;27;19946;-77
2022/10/18 09:39:19;;;;;;;15.55;3.85;;;14.00;99.90;;;;;;5134848;27;20055;-77
2022/10/18 09:41:51;;;;;;;22.70;3.33;;;14.10;99.90;;;;;;5129782;27;20469;-77
2022/10/18 09:44:32;;;;;;;11.65;2.67;;;14.20;99.90;;;;;;5113216;28;20062;-77
2022/10/18 09:47:11;;;;;;;15.60;3.42;;;14.20;99.90;;;;;;5111608;28;20407;-77
2022/10/18 09:49:46;;;;;;;14.85;2.15;;;14.40;99.90;;;;;;5112249;28;20138;-77
2022/10/18 09:52:19;;;;;;;23.48;2.97;;;14.50;99.90;;;;;;5112218;28;20044;-77
2022/10/18 09:54:57;;;;;;;18.05;3.40;;;14.50;99.90;;;;;;5113577;28;20086;-77
2022/10/18 09:57:31;;;;;;;19.77;3.20;;;14.60;99.90;;;;;;5128922;27;20059;-77
2022/10/18 09:59:59;;;;;;;13.88;2.83;;;14.60;99.90;;;;;;5112082;28;20587;-76
2022/10/18 10:02:24;;;;;;;17.40;2.50;;;14.70;99.90;;;;;;5111286;28;20074;-78
2022/10/18 10:04:53;;;;;;;17.35;2.95;;;14.70;99.90;;;;;;5110638;28;20562;-76
2022/10/18 10:07:23;;;;;;;21.35;3.42;;;14.80;99.90;;;;;;5111836;28;20058;-77
2022/10/18 10:09:58;;;;;;;13.10;2.33;;;14.90;99.90;;;;;;5116635;28;20047;-79
2022/10/18 10:12:30;;;;;;;16.35;3.20;;;15.00;99.90;;;;;;5111114;28;20061;-77
2022/10/18 10:15:16;;;;;;;18.98;3.53;;;15.10;99.90;;;;;;5110940;28;20063;-77
2022/10/18 10:17:43;;;;;;;17.35;2.45;;;15.30;99.90;;;;;;5111974;28;20125;-77
2022/10/18 10:20:20;;;;;;;12.93;2.63;;;15.40;99.90;;;;;;5111575;28;20047;-78
2022/10/18 10:22:46;;;;;;;16.48;2.05;;;15.40;99.90;;;;;;5112221;28;20808;-77
2022/10/18 10:25:42;;;;;;;19.00;2.97;;;15.50;99.90;;;;;;5097398;28;20062;-80
2022/10/18 10:28:20;;;;;;;20.35;3.35;;;15.50;99.90;;;;;;5097566;28;20051;-78
2022/10/18 10:30:46;;;;;;;19.05;2.60;;;15.60;99.90;;;;;;5110929;28;20048;-77
2022/10/18 10:33:36;;;;;;;21.13;3.53;;;15.70;99.90;;;;;;5111867;28;20055;-77
2022/10/18 10:36:16;;;;;;;23.15;3.70;;;15.80;99.90;;;;;;5082855;28;20069;-77
2022/10/18 10:38:42;;;;;;;15.60;2.40;;;15.90;99.90;;;;;;5109754;28;20055;-77
2022/10/18 10:41:20;;;;;;;16.27;2.85;;;15.90;99.90;;;;;;5115257;28;20058;-78
2022/10/18 10:43:47;;;;;;;14.15;2.42;;;16.00;99.90;;;;;;5113696;28;20127;-76
2022/10/18 10:46:32;;;;;;;16.90;2.60;;;16.10;99.90;;;;;;5110108;28;20063;-80
2022/10/18 10:48:59;;;;;;;13.68;2.58;;;16.00;99.90;;;;;;5110165;28;20088;-80
2022/10/18 10:51:36;;;;;;;16.05;3.38;;;16.00;99.90;;;;;;5110109;28;20455;-77
2022/10/18 10:54:04;;;;;;;14.52;2.60;;;16.10;99.90;;;;;;5110350;28;20077;-78
2022/10/18 10:56:36;;;;;;;16.48;3.22;;;16.20;99.90;;;;;;5111932;28;20059;-77
2022/10/18 10:59:17;;;;;;;12.75;2.58;;;16.20;99.90;;;;;;5116146;28;20509;-78
2022/10/18 11:01:44;;;;;;;14.13;2.42;;;16.40;99.90;;;;;;5111270;28;20044;-80
2022/10/18 11:04:30;;;;;;;15.70;2.25;;;16.70;99.90;;;;;;5111436;28;20508;-77
2022/10/18 11:07:08;;;;;;;16.35;2.13;;;17.20;99.90;;;;;;5111259;28;20078;-80
2022/10/18 11:09:47;;;;;;;13.25;2.03;;;17.70;99.90;;;;;;5111388;28;20713;-80
2022/10/18 11:12:52;;;;;;;13.15;2.90;;;18.30;99.90;;;;;;5111456;28;20066;-77
2022/10/18 11:15:45;;;;;;;13.63;2.90;;;19.10;99.90;;;;;;5110410;28;20119;-78
2022/10/18 11:18:32;;;;;;;10.82;2.67;;;19.80;99.90;;;;;;5111097;28;20760;-80
2022/10/18 11:21:07;;;;;;;16.13;2.67;;;20.50;99.90;;;;;;5111269;28;20047;-79
2022/10/18 11:23:35;;;;;;;16.65;3.10;;;21.10;99.90;;;;;;5110978;28;20131;-79
2022/10/18 11:26:10;;;;;;;9.20;2.28;;;21.60;99.90;;;;;;5111304;28;20403;-81
2022/10/18 11:29:13;;;;;;;12.80;2.70;;;21.90;99.90;;;;;;5092874;28;20511;-79
2022/10/18 11:31:42;;;;;;;12.23;2.95;;;22.20;99.90;;;;;;5115130;28;20055;-79
2022/10/18 11:34:27;;;;;;;14.65;2.75;;;23.10;99.40;;;;;;5112422;28;20051;-78
2022/10/18 11:36:59;;;;;;;14.10;2.78;;;23.20;98.70;;;;;;5109878;28;20060;-78
2022/10/18 11:39:48;;;;;;;14.75;2.15;;;22.90;98.10;;;;;;5109981;28;20048;-77
2022/10/18 11:42:28;;;;;;;12.48;3.00;;;22.30;97.50;;;;;;5109452;28;20138;-77
2022/10/18 11:45:05;;;;;;;13.60;2.15;;;21.50;98.90;;;;;;5109517;28;20054;-77
2022/10/18 11:47:45;;;;;;;16.25;2.30;;;20.70;99.90;;;;;;5112161;28;20063;-78
2022/10/18 11:50:14;;;;;;;18.95;3.75;;;20.40;99.90;;;;;;5112850;28;20055;-76
2022/10/18 11:52:53;;;;;;;15.75;2.40;;;21.40;99.90;;;;;;5113710;28;20047;-79
2022/10/18 11:55:44;;;;;;;17.52;3.05;;;22.50;98.90;;;;;;5115025;28;20055;-79
2022/10/18 11:58:32;;;;;;;17.00;2.25;;;23.30;97.60;;;;;;5113579;28;20094;-80
2022/10/18 12:01:11;;;;;;;14.23;2.85;;;24.50;96.80;;;;;;5113028;28;20062;-76
2022/10/18 12:03:40;;;;;;;12.25;2.75;;;25.00;96.30;;;;;;5114929;28;20118;-74
2022/10/18 12:06:13;;;;;;;11.40;2.28;;;25.70;94.20;;;;;;5097834;28;20055;-77
2022/10/18 12:08:48;;;;;;;10.88;1.85;;;25.90;93.40;;;;;;5097976;28;20579;-80
2022/10/18 12:11:28;;;;;;;10.90;2.25;;;26.10;92.40;;;;;;5115116;28;20071;-81
2022/10/18 12:14:01;;;;;;;11.43;3.33;;;26.20;93.20;;;;;;5114727;28;20048;-81
2022/10/18 12:16:39;;;;;;;14.68;2.10;;;27.00;91.70;;;;;;5118615;28;20047;-79
2022/10/18 12:19:31;;;;;;;11.68;2.58;;;27.40;91.60;;;;;;5114368;28;20131;-79
2022/10/18 12:22:13;;;;;;;9.15;2.08;;;27.60;89.30;;;;;;5118233;28;20062;-78
2022/10/18 12:24:40;;;;;;;8.00;2.30;;;27.80;88.40;;;;;;5113863;28;20101;-77
2022/10/18 12:27:12;;;;;;;11.38;2.20;;;27.90;87.40;;;;;;5113425;28;20550;-78
2022/10/18 12:29:57;;;;;;;13.35;2.90;;;28.20;85.70;;;;;;5114689;28;20075;-78
2022/10/18 12:32:32;;;;;;;14.20;2.45;;;28.70;86.40;;;;;;5113198;28;20058;-80
2022/10/18 12:35:03;;;;;;;16.50;2.40;;;27.80;83.60;;;;;;5113009;28;20127;-79
2022/10/18 12:38:14;;;;;;;9.18;2.05;;;27.90;83.80;;;;;;5116666;28;20134;-80
2022/10/18 12:40:44;;;;;;;11.02;1.75;;;27.80;83.80;;;;;;5130745;27;20058;-80
2022/10/18 12:43:25;;;;;;;14.05;2.92;;;27.70;86.10;;;;;;5132494;27;20411;-79
2022/10/18 12:46:02;;;;;;;10.95;2.22;;;28.10;82.90;;;;;;5136147;27;20149;-80
2022/10/18 12:48:44;;;;;;;14.30;2.28;;;28.00;82.60;;;;;;5118023;27;20062;-80
2022/10/18 12:51:21;;;;;;;12.40;2.20;;;27.80;82.80;;;;;;5118294;27;20503;-78
2022/10/18 12:53:53;;;;;;;11.32;2.45;;;27.90;83.80;;;;;;5137179;27;20047;-76